createdAt,value
2023-11-03T00:00:45.595Z,8.30
2023-11-03T00:03:13.365Z,8.30
2023-11-03T00:05:41.091Z,8.30
2023-11-03T00:08:09.829Z,8.20
2023-11-03T00:10:39.605Z,8.20
2023-11-03T00:13:07.353Z,8.10
2023-11-03T00:15:35.533Z,8.20
2023-11-03T00:18:03.285Z,8.10
2023-11-03T00:20:31.002Z,8.20
2023-11-03T00:22:58.725Z,8.20
2023-11-03T00:25:26.396Z,8.20
2023-11-03T00:27:56.337Z,8.30
2023-11-03T00:30:24.041Z,8.30
2023-11-03T00:32:51.792Z,8.30
2023-11-03T00:35:19.483Z,8.30
2023-11-03T00:37:47.223Z,8.30
2023-11-03T00:40:15.787Z,8.30
2023-11-03T00:42:43.793Z,8.20
2023-11-03T00:45:12.932Z,8.20
2023-11-03T00:47:41.648Z,8.30
2023-11-03T00:50:10.549Z,8.40
2023-11-03T00:52:38.632Z,8.50
2023-11-03T00:55:07.822Z,8.60
2023-11-03T00:57:38.791Z,8.80
2023-11-03T01:00:11.265Z,8.90
2023-11-03T01:02:40.940Z,9.00
2023-11-03T01:05:11.543Z,9.10
2023-11-03T01:07:39.726Z,9.20
2023-11-03T01:10:09.678Z,9.20
2023-11-03T01:12:37.467Z,9.20
2023-11-03T01:15:07.105Z,9.40
2023-11-03T01:17:36.362Z,9.40
2023-11-03T01:20:13.705Z,9.40
2023-11-03T01:22:41.509Z,9.50
2023-11-03T01:25:12.571Z,9.50
2023-11-03T01:27:43.188Z,9.60
2023-11-03T01:30:14.008Z,9.60
2023-11-03T01:32:42.269Z,9.60
2023-11-03T01:35:11.611Z,9.60
2023-11-03T01:37:39.729Z,9.60
2023-11-03T01:40:09.728Z,9.70
2023-11-03T01:42:37.736Z,9.70
2023-11-03T01:45:06.405Z,9.70
2023-11-03T01:47:34.352Z,9.70
2023-11-03T01:50:02.516Z,9.70
2023-11-03T01:52:34.116Z,9.70
2023-11-03T01:55:02.997Z,9.70
2023-11-03T01:57:31.343Z,9.70
2023-11-03T01:59:59.067Z,9.70
2023-11-03T02:02:28.680Z,9.70
2023-11-03T02:04:56.765Z,9.70
2023-11-03T02:07:25.644Z,9.70
2023-11-03T02:09:54.784Z,9.70
2023-11-03T02:12:22.623Z,9.70
2023-11-03T02:14:52.530Z,9.70
2023-11-03T02:17:20.778Z,9.70
2023-11-03T02:19:49.177Z,9.70
2023-11-03T02:22:16.938Z,9.60
2023-11-03T02:24:46.154Z,9.50
2023-11-03T02:27:14.186Z,9.50
2023-11-03T02:29:41.854Z,9.50
2023-11-03T02:32:10.317Z,9.50
2023-11-03T02:34:38.065Z,9.50
2023-11-03T02:37:06.090Z,9.50
2023-11-03T02:39:37.412Z,9.50
2023-11-03T02:42:06.599Z,9.50
2023-11-03T02:44:34.710Z,9.50
2023-11-03T02:47:02.408Z,9.60
2023-11-03T02:49:32.090Z,9.60
2023-11-03T02:51:59.911Z,9.70
2023-11-03T02:54:27.612Z,9.70
2023-11-03T02:56:55.316Z,9.80
2023-11-03T02:59:24.664Z,9.80
2023-11-03T03:01:52.382Z,9.90
2023-11-03T03:04:20.203Z,9.90
2023-11-03T03:06:48.064Z,9.90
2023-11-03T03:09:16.366Z,9.90
2023-11-03T03:11:44.869Z,10.00
2023-11-03T03:14:12.661Z,9.90
2023-11-03T03:16:41.796Z,9.90
2023-11-03T03:19:09.593Z,9.90
2023-11-03T03:21:37.363Z,9.90
2023-11-03T03:24:05.678Z,10.00
2023-11-03T03:26:33.335Z,10.00
2023-11-03T03:29:01.072Z,10.00
2023-11-03T03:31:28.770Z,10.00
2023-11-03T03:33:57.968Z,9.90
2023-11-03T03:36:25.795Z,9.90
2023-11-03T03:38:53.529Z,9.90
2023-11-03T03:41:21.258Z,9.90
2023-11-03T03:43:48.913Z,9.90
2023-11-03T03:46:16.620Z,10.00
2023-11-03T03:48:45.746Z,10.00
2023-11-03T03:51:16.883Z,10.00
2023-11-03T03:53:44.706Z,10.00
2023-11-03T03:56:12.424Z,9.90
2023-11-03T03:58:40.386Z,10.00
2023-11-03T04:01:08.741Z,10.00
2023-11-03T04:03:36.467Z,9.90
2023-11-03T04:06:05.015Z,9.90
2023-11-03T04:08:34.102Z,9.90
2023-11-03T04:11:02.077Z,10.00
2023-11-03T04:13:29.814Z,10.00
2023-11-03T04:15:57.532Z,9.90
2023-11-03T04:18:25.850Z,10.00
2023-11-03T04:20:53.543Z,10.00
2023-11-03T04:23:21.207Z,10.00
2023-11-03T04:25:51.985Z,10.00
2023-11-03T04:28:19.766Z,10.10
2023-11-03T04:30:47.727Z,10.10
2023-11-03T04:33:15.494Z,10.10
2023-11-03T04:35:43.996Z,10.20
2023-11-03T04:38:11.889Z,10.30
2023-11-03T04:40:39.712Z,10.30
2023-11-03T04:43:13.070Z,10.30
2023-11-03T04:45:40.809Z,10.30
2023-11-03T04:48:08.857Z,10.20
2023-11-03T04:50:36.971Z,10.10
2023-11-03T04:53:04.692Z,10.10
2023-11-03T04:55:32.522Z,10.20
2023-11-03T04:58:01.724Z,10.10
2023-11-03T05:00:30.763Z,10.00
2023-11-03T05:02:58.495Z,9.90
2023-11-03T05:05:31.034Z,9.90
2023-11-03T05:07:58.812Z,9.80
2023-11-03T05:10:26.545Z,9.80
2023-11-03T05:12:54.908Z,9.70
2023-11-03T05:15:22.606Z,9.80
2023-11-03T05:17:51.698Z,9.70
2023-11-03T05:20:20.663Z,9.80
2023-11-03T05:22:48.330Z,9.80
2023-11-03T05:25:16.176Z,9.70
2023-11-03T05:27:44.173Z,9.80
2023-11-03T05:30:12.734Z,9.80
2023-11-03T05:32:40.481Z,9.80
2023-11-03T05:35:10.451Z,9.90
2023-11-03T05:37:38.225Z,9.90
2023-11-03T05:40:06.982Z,9.90
2023-11-03T05:42:34.786Z,9.90
2023-11-03T05:45:02.521Z,9.80
2023-11-03T05:47:30.477Z,9.80
2023-11-03T05:49:58.288Z,9.90
2023-11-03T05:52:27.463Z,9.90
2023-11-03T05:54:55.223Z,10.00
2023-11-03T05:57:22.902Z,9.90
2023-11-03T05:59:50.756Z,9.80
2023-11-03T06:02:19.257Z,9.70
2023-11-03T06:04:47.100Z,9.60
2023-11-03T06:07:15.423Z,9.50
2023-11-03T06:09:44.483Z,9.40
2023-11-03T06:12:12.225Z,9.40
2023-11-03T06:14:39.896Z,9.40
2023-11-03T06:17:07.608Z,9.40
2023-11-03T06:19:35.541Z,9.40
2023-11-03T06:22:03.280Z,9.30
2023-11-03T06:24:31.068Z,9.30
2023-11-03T06:27:00.755Z,9.30
2023-11-03T06:29:28.998Z,9.20
2023-11-03T06:31:56.758Z,9.10
2023-11-03T06:34:24.527Z,9.10
2023-11-03T06:36:52.369Z,9.10
2023-11-03T06:39:21.358Z,9.20
2023-11-03T06:42:00.577Z,9.20
2023-11-03T06:44:28.247Z,9.20
2023-11-03T06:46:55.901Z,9.30
2023-11-03T06:49:23.747Z,9.30
2023-11-03T06:51:51.567Z,9.30
2023-11-03T06:54:20.225Z,9.40
2023-11-03T06:56:47.903Z,9.30
2023-11-03T06:59:16.889Z,9.30
2023-11-03T07:01:44.657Z,9.40
2023-11-03T07:04:12.299Z,9.40
2023-11-03T07:06:40.008Z,9.40
2023-11-03T07:09:07.796Z,9.30
2023-11-03T07:11:35.970Z,9.30
2023-11-03T07:14:06.174Z,9.30
2023-11-03T07:16:35.603Z,9.30
2023-11-03T07:19:03.557Z,9.40
2023-11-03T07:21:33.591Z,9.40
2023-11-03T07:24:03.439Z,9.50
2023-11-03T07:26:32.582Z,9.40
2023-11-03T07:29:00.448Z,9.50
2023-11-03T07:31:28.384Z,9.50
2023-11-03T07:34:00.263Z,9.50
2023-11-03T07:36:28.070Z,9.60
2023-11-03T07:38:55.700Z,9.60
2023-11-03T07:41:23.389Z,9.60
2023-11-03T07:43:53.828Z,9.60
2023-11-03T07:46:22.392Z,9.60
2023-11-03T07:48:50.167Z,9.60
2023-11-03T07:51:20.018Z,9.60
2023-11-03T07:53:47.745Z,9.60
2023-11-03T07:56:15.709Z,9.60
2023-11-03T07:58:43.375Z,9.60
2023-11-03T08:01:11.337Z,9.60
2023-11-03T08:03:39.647Z,9.70
2023-11-03T08:06:07.615Z,9.70
2023-11-03T08:08:37.815Z,9.70
2023-11-03T08:11:05.964Z,9.60
2023-11-03T08:13:33.660Z,9.70
2023-11-03T08:16:01.706Z,9.70
2023-11-03T08:18:31.356Z,9.80
2023-11-03T08:20:59.328Z,9.70
2023-11-03T08:23:27.278Z,9.70
2023-11-03T08:25:56.395Z,9.70
2023-11-03T08:28:24.145Z,9.70
2023-11-03T08:30:52.911Z,9.70
2023-11-03T08:33:20.752Z,9.80
2023-11-03T08:35:51.338Z,9.80
2023-11-03T08:38:19.699Z,9.90
2023-11-03T08:40:47.403Z,9.90
2023-11-03T08:43:16.465Z,9.80
2023-11-03T08:45:44.697Z,9.90
2023-11-03T08:48:13.227Z,10.00
2023-11-03T08:50:40.905Z,9.90
2023-11-03T08:53:08.780Z,9.90
2023-11-03T08:55:36.447Z,9.90
2023-11-03T08:58:04.181Z,9.90
2023-11-03T09:00:33.226Z,10.00
2023-11-03T09:03:01.271Z,10.10
2023-11-03T09:05:29.032Z,10.20
2023-11-03T09:07:56.740Z,10.30
2023-11-03T09:10:25.609Z,10.20
2023-11-03T09:12:54.896Z,10.20
2023-11-03T09:15:22.688Z,10.20
2023-11-03T09:17:51.708Z,10.30
2023-11-03T09:20:19.867Z,10.30
2023-11-03T09:22:49.145Z,10.10
2023-11-03T09:25:17.038Z,10.10
2023-11-03T09:27:44.712Z,10.20
2023-11-03T09:30:12.784Z,10.30
2023-11-03T09:32:41.657Z,10.30
2023-11-03T09:35:11.423Z,10.30
2023-11-03T09:37:39.393Z,10.10
2023-11-03T09:40:08.731Z,10.10
2023-11-03T09:42:38.111Z,10.00
2023-11-03T09:45:16.295Z,10.00
2023-11-03T09:47:45.803Z,10.00
2023-11-03T09:50:14.892Z,9.90
2023-11-03T09:52:48.598Z,9.90
2023-11-03T09:55:20.807Z,9.90
2023-11-03T09:57:50.735Z,10.10
2023-11-03T10:00:22.382Z,10.10
2023-11-03T10:02:50.373Z,10.20
2023-11-03T10:05:20.374Z,10.10
2023-11-03T10:07:53.326Z,10.10
2023-11-03T10:10:21.615Z,10.10
2023-11-03T10:12:49.356Z,10.30
2023-11-03T10:15:17.682Z,10.40
2023-11-03T10:17:48.303Z,10.60
2023-11-03T10:20:16.739Z,10.50
2023-11-03T10:22:48.344Z,10.50
2023-11-03T10:25:16.341Z,10.40
2023-11-03T10:27:50.638Z,10.60
2023-11-03T10:30:20.234Z,10.60
2023-11-03T10:32:48.624Z,10.40
2023-11-03T10:35:16.448Z,10.40
2023-11-03T10:37:47.271Z,10.50
2023-11-03T10:40:15.342Z,10.70
2023-11-03T10:42:49.160Z,10.50
2023-11-03T10:45:18.065Z,10.60
2023-11-03T10:47:57.374Z,10.50
2023-11-03T10:50:31.374Z,10.60
2023-11-03T10:53:11.809Z,10.60
2023-11-03T10:55:47.550Z,10.70
2023-11-03T10:58:15.415Z,10.80
2023-11-03T11:00:49.819Z,10.90
2023-11-03T11:03:24.103Z,10.70
2023-11-03T11:05:58.944Z,10.70
2023-11-03T11:08:33.005Z,10.60
2023-11-03T11:11:03.780Z,10.70
2023-11-03T11:13:32.938Z,10.70
2023-11-03T11:16:09.516Z,10.70
2023-11-03T11:18:44.715Z,10.70
2023-11-03T11:21:15.814Z,10.90
2023-11-03T11:23:48.995Z,11.10
2023-11-03T11:26:32.116Z,11.00
2023-11-03T11:29:04.702Z,10.80
2023-11-03T11:31:41.641Z,10.90
2023-11-03T11:34:13.796Z,10.90
2023-11-03T11:36:43.847Z,11.00
2023-11-03T11:39:15.787Z,11.10
2023-11-03T11:41:49.740Z,11.30
2023-11-03T11:44:20.231Z,11.60
2023-11-03T11:46:53.994Z,11.90
2023-11-03T11:49:23.925Z,11.80
2023-11-03T11:51:52.946Z,11.90
2023-11-03T11:54:23.475Z,12.00
2023-11-03T11:56:52.020Z,12.00
2023-11-03T11:59:21.682Z,11.80
2023-11-03T12:01:50.717Z,11.80
2023-11-03T12:04:19.869Z,11.80
2023-11-03T12:06:48.538Z,11.80
2023-11-03T12:09:17.833Z,11.90
2023-11-03T12:11:47.351Z,11.90
2023-11-03T12:14:15.260Z,11.90
2023-11-03T12:16:43.297Z,11.90
2023-11-03T12:19:16.279Z,11.90
2023-11-03T12:21:44.623Z,11.90
2023-11-03T12:24:13.919Z,12.00
2023-11-03T12:26:42.128Z,11.80
2023-11-03T12:29:28.853Z,11.80
2023-11-03T12:31:57.965Z,11.80
2023-11-03T12:34:29.401Z,11.80
2023-11-03T12:36:58.756Z,11.70
2023-11-03T12:39:27.030Z,11.80
2023-11-03T12:42:03.393Z,12.00
2023-11-03T12:44:32.730Z,11.90
2023-11-03T12:47:02.217Z,11.80
2023-11-03T12:49:30.551Z,11.90
2023-11-03T12:51:58.874Z,11.80
2023-11-03T12:54:26.725Z,11.90
2023-11-03T12:56:57.788Z,11.90
2023-11-03T12:59:25.621Z,12.00
2023-11-03T13:01:55.129Z,12.00
2023-11-03T13:04:23.061Z,11.70
2023-11-03T13:06:54.288Z,11.50
2023-11-03T13:09:25.130Z,11.40
2023-11-03T13:11:53.139Z,11.40
2023-11-03T13:14:20.845Z,11.30
2023-11-03T13:16:48.519Z,11.30
2023-11-03T13:19:18.064Z,11.40
2023-11-03T13:21:45.762Z,11.50
2023-11-03T13:24:13.838Z,11.60
2023-11-03T13:26:41.726Z,11.60
2023-11-03T13:29:09.470Z,11.70
2023-11-03T13:31:37.421Z,11.60
2023-11-03T13:34:05.216Z,11.50
2023-11-03T13:36:35.557Z,11.50
2023-11-03T13:39:03.547Z,11.50
2023-11-03T13:41:31.185Z,11.30
2023-11-03T13:43:58.862Z,11.40
2023-11-03T13:46:26.684Z,11.30
2023-11-03T13:48:55.445Z,11.30
2023-11-03T13:51:24.910Z,11.10
2023-11-03T13:53:55.399Z,11.00
2023-11-03T13:56:23.161Z,10.80
2023-11-03T13:58:50.923Z,10.70
2023-11-03T14:01:18.830Z,10.70
2023-11-03T14:03:46.820Z,10.70
2023-11-03T14:06:18.816Z,10.70
2023-11-03T14:08:46.505Z,10.70
2023-11-03T14:11:16.092Z,10.70
2023-11-03T14:13:46.321Z,10.70
2023-11-03T14:16:15.653Z,10.70
2023-11-03T14:18:43.534Z,10.70
2023-11-03T14:21:12.085Z,10.70
2023-11-03T14:23:39.737Z,10.70
2023-11-03T14:26:07.548Z,10.70
2023-11-03T14:28:36.843Z,10.60
2023-11-03T14:31:05.169Z,10.60
2023-11-03T14:33:33.933Z,10.60
2023-11-03T14:36:01.778Z,10.70
2023-11-03T14:38:29.762Z,10.70
2023-11-03T14:41:00.161Z,10.60
2023-11-03T14:43:28.046Z,10.70
2023-11-03T14:45:57.849Z,10.70
2023-11-03T14:48:25.635Z,10.70
2023-11-03T14:50:53.883Z,10.80
2023-11-03T14:53:21.971Z,10.70
2023-11-03T14:55:49.673Z,10.70
2023-11-03T14:58:17.805Z,10.60
2023-11-03T15:00:45.855Z,10.60
2023-11-03T15:03:15.138Z,10.60
2023-11-03T15:05:43.050Z,10.70
2023-11-03T15:08:10.724Z,10.70
2023-11-03T15:10:38.535Z,10.70
2023-11-03T15:13:06.290Z,10.50
2023-11-03T15:15:38.487Z,10.50
2023-11-03T15:18:07.470Z,10.50
2023-11-03T15:20:36.878Z,10.50
2023-11-03T15:23:04.618Z,10.50
2023-11-03T15:25:32.399Z,10.30
2023-11-03T15:28:00.118Z,10.30
2023-11-03T15:30:29.468Z,10.40
2023-11-03T15:32:57.338Z,10.50
2023-11-03T15:35:26.805Z,10.50
2023-11-03T15:37:56.385Z,10.40
2023-11-03T15:40:25.223Z,10.40
2023-11-03T15:42:53.103Z,10.40
2023-11-03T15:45:21.010Z,10.50
2023-11-03T15:47:49.837Z,10.50
2023-11-03T15:50:21.421Z,10.50
2023-11-03T15:52:51.293Z,10.60
2023-11-03T15:55:20.859Z,10.40
2023-11-03T15:57:51.292Z,10.40
2023-11-03T16:00:21.180Z,10.30
2023-11-03T16:02:49.644Z,10.30
2023-11-03T16:05:17.787Z,10.30
2023-11-03T16:07:45.601Z,10.20
2023-11-03T16:10:17.034Z,10.20
2023-11-03T16:12:47.530Z,10.20
2023-11-03T16:15:16.795Z,10.10
2023-11-03T16:17:48.016Z,10.10
2023-11-03T16:20:18.510Z,10.10
2023-11-03T16:22:47.458Z,10.10
2023-11-03T16:25:16.164Z,10.00
2023-11-03T16:27:46.277Z,10.00
2023-11-03T16:30:17.208Z,10.00
2023-11-03T16:32:47.476Z,10.10
2023-11-03T16:35:15.545Z,10.10
2023-11-03T16:37:43.339Z,10.00
2023-11-03T16:40:12.827Z,10.00
2023-11-03T16:42:40.739Z,10.00
2023-11-03T16:45:11.707Z,10.00
2023-11-03T16:47:39.904Z,10.00
2023-11-03T16:50:10.461Z,10.00
2023-11-03T16:52:39.367Z,10.10
2023-11-03T16:55:09.129Z,10.10
2023-11-03T16:57:38.318Z,10.10
2023-11-03T17:00:12.485Z,10.10
2023-11-03T17:02:45.237Z,10.10
2023-11-03T17:05:15.807Z,9.90
2023-11-03T17:07:43.991Z,9.90
2023-11-03T17:10:12.546Z,9.90
2023-11-03T17:12:53.189Z,9.80
2023-11-03T17:15:27.492Z,9.70
2023-11-03T17:17:57.145Z,9.70
2023-11-03T17:20:25.239Z,9.60
2023-11-03T17:22:53.364Z,9.60
2023-11-03T17:25:21.281Z,9.50
2023-11-03T17:27:49.397Z,9.50
2023-11-03T17:30:19.377Z,9.40
2023-11-03T17:32:49.066Z,9.30
2023-11-03T17:35:21.298Z,9.30
2023-11-03T17:37:49.506Z,9.20
2023-11-03T17:40:18.011Z,9.10
2023-11-03T17:42:46.415Z,9.00
2023-11-03T17:45:17.161Z,8.90
2023-11-03T17:47:45.927Z,8.90
2023-11-03T17:50:15.047Z,8.90
2023-11-03T17:52:44.647Z,8.80
2023-11-03T17:55:14.376Z,8.80
2023-11-03T17:57:47.151Z,8.60
2023-11-03T18:00:18.428Z,8.60
2023-11-03T18:02:47.012Z,8.60
2023-11-03T18:05:16.524Z,8.60
2023-11-03T18:07:47.178Z,8.60
2023-11-03T18:10:14.980Z,8.60
2023-11-03T18:12:43.194Z,8.50
2023-11-03T18:15:14.154Z,8.50
2023-11-03T18:17:42.446Z,8.50
2023-11-03T18:20:13.672Z,8.30
2023-11-03T18:22:42.601Z,8.40
2023-11-03T18:25:12.670Z,8.30
2023-11-03T18:27:41.368Z,8.40
2023-11-03T18:30:11.457Z,8.40
2023-11-03T18:32:39.986Z,8.50
2023-11-03T18:35:09.914Z,8.50
2023-11-03T18:37:38.762Z,8.60
2023-11-03T18:40:08.226Z,8.70
2023-11-03T18:42:37.327Z,8.60
2023-11-03T18:45:05.344Z,8.60
2023-11-03T18:47:34.611Z,8.60
2023-11-03T18:52:33.384Z,8.60
2023-11-03T18:55:57.005Z,8.50
2023-11-03T19:00:55.648Z,8.50
2023-11-03T19:07:25.815Z,8.50
2023-11-03T19:08:29.820Z,8.50
2023-11-03T19:10:57.906Z,8.50
2023-11-03T19:13:26.976Z,8.50
2023-11-03T19:15:54.833Z,8.40
2023-11-03T19:18:23.518Z,8.40
2023-11-03T19:20:51.498Z,8.30
2023-11-03T19:23:20.173Z,8.30
2023-11-03T19:25:48.262Z,8.30
2023-11-03T19:28:16.701Z,8.30
2023-11-03T19:30:46.548Z,8.20
2023-11-03T19:33:14.817Z,8.10
2023-11-03T19:35:49.022Z,8.10
2023-11-03T19:38:18.083Z,8.10
2023-11-03T19:40:46.848Z,8.00
2023-11-03T19:43:14.655Z,8.00
2023-11-03T19:45:42.389Z,7.90
2023-11-03T19:48:12.187Z,7.90
2023-11-03T19:50:40.324Z,7.90
2023-11-03T19:53:08.197Z,7.90
2023-11-03T19:55:35.912Z,7.80
2023-11-03T19:58:04.738Z,7.80
2023-11-03T20:00:34.578Z,7.90
2023-11-03T20:03:04.495Z,7.90
2023-11-03T20:05:33.680Z,7.80
2023-11-03T20:08:02.498Z,7.80
2023-11-03T20:10:30.461Z,7.80
2023-11-03T20:12:58.256Z,7.70
2023-11-03T20:15:27.298Z,7.60
2023-11-03T20:17:55.761Z,7.60
2023-11-03T20:20:24.054Z,7.60
2023-11-03T20:22:55.568Z,7.50
2023-11-03T20:25:23.436Z,7.50
2023-11-03T20:27:51.190Z,7.50
2023-11-03T20:30:20.461Z,7.50
2023-11-03T20:32:48.718Z,7.40
2023-11-03T20:35:18.565Z,7.40
2023-11-03T20:37:46.278Z,7.30
2023-11-03T20:40:16.215Z,7.30
2023-11-03T20:42:43.932Z,7.30
2023-11-03T20:45:13.002Z,7.30
2023-11-03T20:47:40.939Z,7.20
2023-11-03T20:50:10.039Z,7.20
2023-11-03T20:52:37.781Z,7.20
2023-11-03T20:55:06.392Z,7.20
2023-11-03T20:57:35.729Z,7.20
2023-11-03T21:00:04.871Z,7.20
2023-11-03T21:02:32.703Z,7.20
2023-11-03T21:05:00.687Z,7.20
2023-11-03T21:07:28.669Z,7.10
2023-11-03T21:09:56.482Z,7.00
2023-11-03T21:12:24.238Z,7.10
2023-11-03T21:14:53.310Z,7.00
2023-11-03T21:17:22.176Z,7.00
2023-11-03T21:19:49.952Z,7.00
2023-11-03T21:22:20.341Z,7.00
2023-11-03T21:24:48.294Z,7.00
2023-11-03T21:27:16.133Z,7.00
2023-11-03T21:29:44.182Z,7.00
2023-11-03T21:32:13.233Z,7.00
2023-11-03T21:34:41.374Z,7.00
2023-11-03T21:37:09.120Z,6.90
2023-11-03T21:39:36.873Z,6.90
2023-11-03T21:42:05.520Z,6.90
2023-11-03T21:44:34.325Z,6.80
2023-11-03T21:47:02.771Z,6.80
2023-11-03T21:49:32.174Z,6.80
2023-11-03T21:51:59.898Z,6.80
2023-11-03T21:54:27.639Z,6.70
2023-11-03T21:56:57.175Z,6.70
2023-11-03T21:59:24.864Z,6.70
2023-11-03T22:01:52.549Z,6.60
2023-11-03T22:04:21.680Z,6.70
2023-11-03T22:06:51.272Z,6.60
2023-11-03T22:09:19.489Z,6.60
2023-11-03T22:11:47.639Z,6.60
2023-11-03T22:14:15.815Z,6.60
2023-11-03T22:16:43.548Z,6.60
2023-11-03T22:19:11.552Z,6.60
2023-11-03T22:21:39.348Z,6.60
2023-11-03T22:24:09.212Z,6.50
2023-11-03T22:26:43.260Z,6.50
2023-11-03T22:29:12.646Z,6.50
2023-11-03T22:31:47.452Z,6.50
2023-11-03T22:34:16.037Z,6.60
2023-11-03T22:36:44.189Z,6.60
2023-11-03T22:39:14.481Z,6.60
2023-11-03T22:41:42.265Z,6.60
2023-11-03T22:44:10.005Z,6.60
2023-11-03T22:46:37.768Z,6.60
2023-11-03T22:49:05.921Z,6.60
2023-11-03T22:51:33.793Z,6.60
2023-11-03T22:54:02.435Z,6.70
2023-11-03T22:56:32.078Z,6.60
2023-11-03T22:58:59.857Z,6.60
2023-11-03T23:01:27.553Z,6.70
2023-11-03T23:03:55.260Z,6.70
2023-11-03T23:06:23.196Z,6.80
2023-11-03T23:08:51.051Z,6.80
2023-11-03T23:11:18.830Z,6.90
2023-11-03T23:13:48.370Z,6.90
2023-11-03T23:16:16.133Z,6.90
2023-11-03T23:18:43.882Z,7.00
2023-11-03T23:21:13.060Z,7.00
2023-11-03T23:23:43.179Z,7.00
2023-11-03T23:26:10.895Z,7.00
2023-11-03T23:28:41.102Z,7.00
2023-11-03T23:31:10.279Z,7.00
2023-11-03T23:33:38.098Z,7.00
2023-11-03T23:36:06.599Z,7.00
2023-11-03T23:38:34.371Z,7.00
2023-11-03T23:41:02.071Z,7.00
2023-11-03T23:43:29.765Z,7.10
2023-11-03T23:46:02.185Z,7.20
2023-11-03T23:48:33.504Z,7.20
2023-11-03T23:51:01.267Z,7.30
2023-11-03T23:53:28.987Z,7.40
2023-11-03T23:55:56.772Z,7.50
2023-11-03T23:58:24.519Z,7.60
